sensor_id;sensor_type;location;lat;lon;timestamp;P1;durP1;ratioP1;P2;durP2;ratioP2
1569;SDS011;778;50.120;8.698;2023-07-16T00:00:36;3.10;;;2.90;;
1569;SDS011;778;50.120;8.698;2023-07-16T00:03:06;4.80;;;3.23;;
1569;SDS011;778;50.120;8.698;2023-07-16T00:05:36;4.73;;;4.17;;
1569;SDS011;778;50.120;8.698;2023-07-16T00:08:05;4.00;;;3.30;;
1569;SDS011;778;50.120;8.698;2023-07-16T00:10:34;5.30;;;3.30;;
1569;SDS011;778;50.120;8.698;2023-07-16T00:13:03;3.63;;;3.33;;
1569;SDS011;778;50.120;8.698;2023-07-16T00:15:31;6.23;;;3.70;;
1569;SDS011;778;50.120;8.698;2023-07-16T00:18:00;4.13;;;3.67;;
1569;SDS011;778;50.120;8.698;2023-07-16T00:20:30;3.90;;;3.50;;
1569;SDS011;778;50.120;8.698;2023-07-16T00:22:59;3.93;;;3.53;;
1569;SDS011;778;50.120;8.698;2023-07-16T00:25:28;3.93;;;3.63;;
1569;SDS011;778;50.120;8.698;2023-07-16T00:27:56;4.13;;;3.60;;
1569;SDS011;778;50.120;8.698;2023-07-16T00:30:25;3.30;;;3.00;;
1569;SDS011;778;50.120;8.698;2023-07-16T00:32:53;3.50;;;3.20;;
1569;SDS011;778;50.120;8.698;2023-07-16T00:35:22;3.47;;;3.17;;
1569;SDS011;778;50.120;8.698;2023-07-16T00:37:52;3.33;;;3.13;;
1569;SDS011;778;50.120;8.698;2023-07-16T00:40:21;3.20;;;2.90;;
1569;SDS011;778;50.120;8.698;2023-07-16T00:42:49;3.40;;;3.10;;
1569;SDS011;778;50.120;8.698;2023-07-16T00:45:18;3.37;;;3.00;;
1569;SDS011;778;50.120;8.698;2023-07-16T00:47:46;3.13;;;2.90;;
1569;SDS011;778;50.120;8.698;2023-07-16T00:50:16;3.27;;;2.97;;
1569;SDS011;778;50.120;8.698;2023-07-16T00:52:45;4.37;;;2.40;;
1569;SDS011;778;50.120;8.698;2023-07-16T00:55:16;3.10;;;2.90;;
1569;SDS011;778;50.120;8.698;2023-07-16T00:57:44;3.83;;;2.80;;
1569;SDS011;778;50.120;8.698;2023-07-16T01:00:14;4.00;;;2.57;;
1569;SDS011;778;50.120;8.698;2023-07-16T01:02:43;2.70;;;2.50;;
1569;SDS011;778;50.120;8.698;2023-07-16T01:05:11;4.57;;;2.80;;
1569;SDS011;778;50.120;8.698;2023-07-16T01:07:40;3.10;;;2.37;;
1569;SDS011;778;50.120;8.698;2023-07-16T01:10:21;3.93;;;2.50;;
1569;SDS011;778;50.120;8.698;2023-07-16T01:12:51;2.80;;;2.40;;
1569;SDS011;778;50.120;8.698;2023-07-16T01:15:23;2.47;;;2.03;;
1569;SDS011;778;50.120;8.698;2023-07-16T01:17:52;3.87;;;2.37;;
1569;SDS011;778;50.120;8.698;2023-07-16T01:20:20;2.73;;;2.30;;
1569;SDS011;778;50.120;8.698;2023-07-16T01:22:52;2.90;;;2.07;;
1569;SDS011;778;50.120;8.698;2023-07-16T01:26:00;3.97;;;2.40;;
1569;SDS011;778;50.120;8.698;2023-07-16T01:31:58;3.23;;;2.50;;
1569;SDS011;778;50.120;8.698;2023-07-16T01:34:29;4.13;;;2.40;;
1569;SDS011;778;50.120;8.698;2023-07-16T01:37:00;5.40;;;2.63;;
1569;SDS011;778;50.120;8.698;2023-07-16T01:39:30;2.63;;;2.30;;
1569;SDS011;778;50.120;8.698;2023-07-16T01:42:00;5.40;;;2.60;;
1569;SDS011;778;50.120;8.698;2023-07-16T01:44:30;2.77;;;2.43;;
1569;SDS011;778;50.120;8.698;2023-07-16T01:47:07;2.63;;;1.93;;
1569;SDS011;778;50.120;8.698;2023-07-16T01:49:38;2.30;;;2.10;;
1569;SDS011;778;50.120;8.698;2023-07-16T01:52:08;2.13;;;1.83;;
1569;SDS011;778;50.120;8.698;2023-07-16T01:54:37;2.10;;;1.90;;
1569;SDS011;778;50.120;8.698;2023-07-16T01:57:05;2.50;;;1.93;;
1569;SDS011;778;50.120;8.698;2023-07-16T01:59:35;3.37;;;2.07;;
1569;SDS011;778;50.120;8.698;2023-07-16T02:02:04;4.30;;;2.57;;
1569;SDS011;778;50.120;8.698;2023-07-16T02:04:33;3.30;;;2.40;;
1569;SDS011;778;50.120;8.698;2023-07-16T02:07:01;2.50;;;2.27;;
1569;SDS011;778;50.120;8.698;2023-07-16T02:09:30;4.30;;;2.60;;
1569;SDS011;778;50.120;8.698;2023-07-16T02:11:58;3.83;;;2.67;;
1569;SDS011;778;50.120;8.698;2023-07-16T02:14:27;2.80;;;1.97;;
1569;SDS011;778;50.120;8.698;2023-07-16T02:16:57;4.40;;;2.33;;
1569;SDS011;778;50.120;8.698;2023-07-16T02:19:26;2.10;;;2.00;;
1569;SDS011;778;50.120;8.698;2023-07-16T02:21:55;3.33;;;2.30;;
1569;SDS011;778;50.120;8.698;2023-07-16T02:24:23;2.97;;;2.33;;
1569;SDS011;778;50.120;8.698;2023-07-16T02:26:51;3.90;;;2.13;;
1569;SDS011;778;50.120;8.698;2023-07-16T02:29:20;4.33;;;2.27;;
1569;SDS011;778;50.120;8.698;2023-07-16T02:31:48;2.73;;;2.10;;
1569;SDS011;778;50.120;8.698;2023-07-16T02:34:18;2.80;;;2.00;;
1569;SDS011;778;50.120;8.698;2023-07-16T02:36:47;3.97;;;2.40;;
1569;SDS011;778;50.120;8.698;2023-07-16T02:39:16;3.63;;;1.90;;
1569;SDS011;778;50.120;8.698;2023-07-16T02:41:44;3.03;;;2.03;;
1569;SDS011;778;50.120;8.698;2023-07-16T02:44:12;3.00;;;1.90;;
1569;SDS011;778;50.120;8.698;2023-07-16T02:46:41;2.33;;;1.90;;
1569;SDS011;778;50.120;8.698;2023-07-16T02:49:10;3.80;;;2.73;;
1569;SDS011;778;50.120;8.698;2023-07-16T02:51:40;3.03;;;2.20;;
1569;SDS011;778;50.120;8.698;2023-07-16T02:54:08;3.87;;;1.90;;
1569;SDS011;778;50.120;8.698;2023-07-16T02:56:37;3.40;;;2.17;;
1569;SDS011;778;50.120;8.698;2023-07-16T02:59:05;3.20;;;2.20;;
1569;SDS011;778;50.120;8.698;2023-07-16T03:01:34;2.77;;;2.27;;
1569;SDS011;778;50.120;8.698;2023-07-16T03:04:02;5.77;;;2.57;;
1569;SDS011;778;50.120;8.698;2023-07-16T03:06:31;3.50;;;2.33;;
1569;SDS011;778;50.120;8.698;2023-07-16T03:09:01;2.30;;;2.10;;
1569;SDS011;778;50.120;8.698;2023-07-16T03:11:29;4.53;;;2.37;;
1569;SDS011;778;50.120;8.698;2023-07-16T03:13:57;5.43;;;2.60;;
1569;SDS011;778;50.120;8.698;2023-07-16T03:16:27;3.10;;;2.80;;
1569;SDS011;778;50.120;8.698;2023-07-16T03:18:55;2.00;;;1.90;;
1569;SDS011;778;50.120;8.698;2023-07-16T03:21:25;2.97;;;2.57;;
1569;SDS011;778;50.120;8.698;2023-07-16T03:23:54;4.93;;;3.13;;
1569;SDS011;778;50.120;8.698;2023-07-16T03:26:23;5.40;;;2.47;;
1569;SDS011;778;50.120;8.698;2023-07-16T03:28:52;3.03;;;2.40;;
1569;SDS011;778;50.120;8.698;2023-07-16T03:31:22;4.20;;;2.40;;
1569;SDS011;778;50.120;8.698;2023-07-16T03:33:50;3.70;;;2.57;;
1569;SDS011;778;50.120;8.698;2023-07-16T03:36:19;3.93;;;2.00;;
1569;SDS011;778;50.120;8.698;2023-07-16T03:38:48;3.00;;;2.70;;
1569;SDS011;778;50.120;8.698;2023-07-16T03:41:17;3.87;;;2.50;;
1569;SDS011;778;50.120;8.698;2023-07-16T03:43:48;3.27;;;2.83;;
1569;SDS011;778;50.120;8.698;2023-07-16T03:46:19;4.40;;;2.03;;
1569;SDS011;778;50.120;8.698;2023-07-16T03:48:48;3.70;;;2.70;;
1569;SDS011;778;50.120;8.698;2023-07-16T03:51:16;5.67;;;3.00;;
1569;SDS011;778;50.120;8.698;2023-07-16T03:53:45;3.43;;;2.67;;
1569;SDS011;778;50.120;8.698;2023-07-16T03:56:13;6.93;;;3.03;;
1569;SDS011;778;50.120;8.698;2023-07-16T03:58:42;2.63;;;2.40;;
1569;SDS011;778;50.120;8.698;2023-07-16T04:01:13;6.00;;;3.20;;
1569;SDS011;778;50.120;8.698;2023-07-16T04:03:41;4.23;;;2.57;;
1569;SDS011;778;50.120;8.698;2023-07-16T04:06:10;3.23;;;2.93;;
1569;SDS011;778;50.120;8.698;2023-07-16T04:08:41;5.90;;;2.90;;
1569;SDS011;778;50.120;8.698;2023-07-16T04:11:09;3.20;;;2.90;;
1569;SDS011;778;50.120;8.698;2023-07-16T04:13:37;4.67;;;2.67;;
1569;SDS011;778;50.120;8.698;2023-07-16T04:16:06;6.40;;;3.30;;
1569;SDS011;778;50.120;8.698;2023-07-16T04:18:36;3.70;;;3.00;;
1569;SDS011;778;50.120;8.698;2023-07-16T04:21:04;4.10;;;2.80;;
1569;SDS011;778;50.120;8.698;2023-07-16T04:23:32;3.40;;;3.10;;
1569;SDS011;778;50.120;8.698;2023-07-16T04:26:01;3.03;;;2.70;;
1569;SDS011;778;50.120;8.698;2023-07-16T04:28:29;2.90;;;2.50;;
1569;SDS011;778;50.120;8.698;2023-07-16T04:30:58;7.23;;;2.70;;
1569;SDS011;778;50.120;8.698;2023-07-16T04:33:26;6.73;;;2.33;;
1569;SDS011;778;50.120;8.698;2023-07-16T04:35:56;4.07;;;2.70;;
1569;SDS011;778;50.120;8.698;2023-07-16T04:38:24;4.33;;;2.70;;
1569;SDS011;778;50.120;8.698;2023-07-16T04:40:53;6.70;;;3.10;;
1569;SDS011;778;50.120;8.698;2023-07-16T04:43:22;6.43;;;2.27;;
1569;SDS011;778;50.120;8.698;2023-07-16T04:45:50;2.90;;;2.70;;
1569;SDS011;778;50.120;8.698;2023-07-16T04:48:19;3.70;;;2.37;;
1569;SDS011;778;50.120;8.698;2023-07-16T04:50:47;4.37;;;2.30;;
1569;SDS011;778;50.120;8.698;2023-07-16T04:53:17;3.50;;;2.30;;
1569;SDS011;778;50.120;8.698;2023-07-16T04:55:45;5.00;;;3.10;;
1569;SDS011;778;50.120;8.698;2023-07-16T04:58:14;3.10;;;2.70;;
1569;SDS011;778;50.120;8.698;2023-07-16T05:00:42;6.73;;;3.43;;
1569;SDS011;778;50.120;8.698;2023-07-16T05:03:12;4.20;;;2.53;;
1569;SDS011;778;50.120;8.698;2023-07-16T05:05:40;3.63;;;2.53;;
1569;SDS011;778;50.120;8.698;2023-07-16T05:08:08;5.70;;;2.40;;
1569;SDS011;778;50.120;8.698;2023-07-16T05:10:39;3.80;;;2.50;;
1569;SDS011;778;50.120;8.698;2023-07-16T05:13:08;4.77;;;2.20;;
1569;SDS011;778;50.120;8.698;2023-07-16T05:15:37;4.90;;;2.50;;
1569;SDS011;778;50.120;8.698;2023-07-16T05:18:05;2.77;;;2.10;;
1569;SDS011;778;50.120;8.698;2023-07-16T05:20:34;2.90;;;2.60;;
1569;SDS011;778;50.120;8.698;2023-07-16T05:23:02;8.97;;;3.00;;
1569;SDS011;778;50.120;8.698;2023-07-16T05:25:31;5.67;;;2.20;;
1569;SDS011;778;50.120;8.698;2023-07-16T05:28:01;3.23;;;2.57;;
1569;SDS011;778;50.120;8.698;2023-07-16T05:30:29;5.70;;;2.53;;
1569;SDS011;778;50.120;8.698;2023-07-16T05:32:57;5.17;;;2.67;;
1569;SDS011;778;50.120;8.698;2023-07-16T05:35:26;3.83;;;3.37;;
1569;SDS011;778;50.120;8.698;2023-07-16T05:37:54;5.00;;;2.60;;
1569;SDS011;778;50.120;8.698;2023-07-16T05:40:23;5.23;;;2.73;;
1569;SDS011;778;50.120;8.698;2023-07-16T05:42:51;4.03;;;2.00;;
1569;SDS011;778;50.120;8.698;2023-07-16T05:45:21;5.10;;;2.80;;
1569;SDS011;778;50.120;8.698;2023-07-16T05:47:49;4.67;;;2.70;;
1569;SDS011;778;50.120;8.698;2023-07-16T05:50:18;2.97;;;2.27;;
1569;SDS011;778;50.120;8.698;2023-07-16T05:52:46;5.00;;;2.50;;
1569;SDS011;778;50.120;8.698;2023-07-16T05:55:15;5.60;;;2.77;;
1569;SDS011;778;50.120;8.698;2023-07-16T05:57:44;4.60;;;2.77;;
1569;SDS011;778;50.120;8.698;2023-07-16T06:00:13;5.53;;;2.17;;
1569;SDS011;778;50.120;8.698;2023-07-16T06:02:43;9.03;;;2.63;;
1569;SDS011;778;50.120;8.698;2023-07-16T06:05:12;5.30;;;3.20;;
1569;SDS011;778;50.120;8.698;2023-07-16T06:07:40;5.53;;;2.80;;
1569;SDS011;778;50.120;8.698;2023-07-16T06:10:09;4.27;;;2.80;;
1569;SDS011;778;50.120;8.698;2023-07-16T06:12:37;3.70;;;2.93;;
1569;SDS011;778;50.120;8.698;2023-07-16T06:15:06;5.60;;;3.20;;
1569;SDS011;778;50.120;8.698;2023-07-16T06:17:35;7.87;;;3.03;;
1569;SDS011;778;50.120;8.698;2023-07-16T06:20:06;5.07;;;2.40;;
1569;SDS011;778;50.120;8.698;2023-07-16T06:22:36;5.00;;;2.70;;
1569;SDS011;778;50.120;8.698;2023-07-16T06:25:05;4.17;;;2.93;;
1569;SDS011;778;50.120;8.698;2023-07-16T06:27:37;6.00;;;2.50;;
1569;SDS011;778;50.120;8.698;2023-07-16T06:30:06;5.40;;;2.60;;
1569;SDS011;778;50.120;8.698;2023-07-16T06:32:35;4.37;;;2.90;;
1569;SDS011;778;50.120;8.698;2023-07-16T06:35:03;6.73;;;2.97;;
1569;SDS011;778;50.120;8.698;2023-07-16T06:37:34;3.43;;;2.27;;
1569;SDS011;778;50.120;8.698;2023-07-16T06:40:03;8.03;;;3.27;;
1569;SDS011;778;50.120;8.698;2023-07-16T06:42:33;3.67;;;3.10;;
1569;SDS011;778;50.120;8.698;2023-07-16T06:45:02;8.13;;;3.20;;
1569;SDS011;778;50.120;8.698;2023-07-16T06:47:32;5.77;;;3.30;;
1569;SDS011;778;50.120;8.698;2023-07-16T06:50:00;5.37;;;3.03;;
1569;SDS011;778;50.120;8.698;2023-07-16T06:52:30;5.40;;;2.97;;
1569;SDS011;778;50.120;8.698;2023-07-16T06:54:59;3.70;;;2.63;;
1569;SDS011;778;50.120;8.698;2023-07-16T06:57:27;4.40;;;2.60;;
1569;SDS011;778;50.120;8.698;2023-07-16T06:59:55;6.73;;;3.40;;
1569;SDS011;778;50.120;8.698;2023-07-16T07:02:24;7.83;;;2.77;;
1569;SDS011;778;50.120;8.698;2023-07-16T07:04:52;6.37;;;3.10;;
1569;SDS011;778;50.120;8.698;2023-07-16T07:07:21;4.90;;;3.17;;
1569;SDS011;778;50.120;8.698;2023-07-16T07:09:50;5.33;;;3.13;;
1569;SDS011;778;50.120;8.698;2023-07-16T07:12:19;7.43;;;3.43;;
1569;SDS011;778;50.120;8.698;2023-07-16T07:14:47;5.60;;;2.83;;
1569;SDS011;778;50.120;8.698;2023-07-16T07:17:16;5.93;;;3.10;;
1569;SDS011;778;50.120;8.698;2023-07-16T07:19:44;6.33;;;3.30;;
1569;SDS011;778;50.120;8.698;2023-07-16T07:22:12;6.13;;;3.47;;
1569;SDS011;778;50.120;8.698;2023-07-16T07:24:41;4.40;;;3.03;;
1569;SDS011;778;50.120;8.698;2023-07-16T07:27:12;5.70;;;3.30;;
1569;SDS011;778;50.120;8.698;2023-07-16T07:29:40;4.00;;;3.00;;
1569;SDS011;778;50.120;8.698;2023-07-16T07:32:09;9.33;;;3.40;;
1569;SDS011;778;50.120;8.698;2023-07-16T07:34:38;6.60;;;3.57;;
1569;SDS011;778;50.120;8.698;2023-07-16T07:37:06;7.00;;;3.60;;
1569;SDS011;778;50.120;8.698;2023-07-16T07:39:35;6.60;;;4.60;;
1569;SDS011;778;50.120;8.698;2023-07-16T07:42:04;7.10;;;3.27;;
1569;SDS011;778;50.120;8.698;2023-07-16T07:44:35;8.43;;;3.10;;
1569;SDS011;778;50.120;8.698;2023-07-16T07:47:03;7.53;;;3.00;;
1569;SDS011;778;50.120;8.698;2023-07-16T07:49:33;5.33;;;3.13;;
1569;SDS011;778;50.120;8.698;2023-07-16T07:52:02;8.73;;;3.00;;
1569;SDS011;778;50.120;8.698;2023-07-16T07:54:31;7.00;;;3.30;;
1569;SDS011;778;50.120;8.698;2023-07-16T07:57:00;4.33;;;2.77;;
1569;SDS011;778;50.120;8.698;2023-07-16T07:59:32;5.37;;;2.90;;
1569;SDS011;778;50.120;8.698;2023-07-16T08:02:01;7.57;;;3.10;;
1569;SDS011;778;50.120;8.698;2023-07-16T08:04:30;5.80;;;3.30;;
1569;SDS011;778;50.120;8.698;2023-07-16T08:06:59;5.37;;;3.10;;
1569;SDS011;778;50.120;8.698;2023-07-16T08:09:27;5.03;;;3.33;;
1569;SDS011;778;50.120;8.698;2023-07-16T08:11:56;4.40;;;2.67;;
1569;SDS011;778;50.120;8.698;2023-07-16T08:14:24;3.77;;;3.37;;
1569;SDS011;778;50.120;8.698;2023-07-16T08:16:52;4.43;;;3.00;;
1569;SDS011;778;50.120;8.698;2023-07-16T08:19:22;5.37;;;3.13;;
1569;SDS011;778;50.120;8.698;2023-07-16T08:21:51;3.60;;;2.70;;
1569;SDS011;778;50.120;8.698;2023-07-16T08:24:19;4.30;;;3.27;;
1569;SDS011;778;50.120;8.698;2023-07-16T08:26:48;6.57;;;3.30;;
1569;SDS011;778;50.120;8.698;2023-07-16T08:29:16;6.17;;;2.87;;
1569;SDS011;778;50.120;8.698;2023-07-16T08:31:45;7.27;;;2.93;;
1569;SDS011;778;50.120;8.698;2023-07-16T08:34:13;3.90;;;2.67;;
1569;SDS011;778;50.120;8.698;2023-07-16T08:36:43;6.53;;;3.53;;
1569;SDS011;778;50.120;8.698;2023-07-16T08:39:11;5.63;;;2.87;;
1569;SDS011;778;50.120;8.698;2023-07-16T08:41:40;3.30;;;2.83;;
1569;SDS011;778;50.120;8.698;2023-07-16T08:44:08;4.80;;;2.97;;
1569;SDS011;778;50.120;8.698;2023-07-16T08:46:38;5.17;;;2.80;;
1569;SDS011;778;50.120;8.698;2023-07-16T08:49:07;4.57;;;3.13;;
1569;SDS011;778;50.120;8.698;2023-07-16T08:51:36;5.53;;;2.77;;
1569;SDS011;778;50.120;8.698;2023-07-16T08:54:06;5.80;;;3.10;;
1569;SDS011;778;50.120;8.698;2023-07-16T08:56:35;9.13;;;4.30;;
1569;SDS011;778;50.120;8.698;2023-07-16T08:59:04;4.90;;;3.77;;
1569;SDS011;778;50.120;8.698;2023-07-16T09:01:32;4.47;;;3.30;;
1569;SDS011;778;50.120;8.698;2023-07-16T09:04:01;4.53;;;2.70;;
1569;SDS011;778;50.120;8.698;2023-07-16T09:06:29;4.77;;;3.10;;
1569;SDS011;778;50.120;8.698;2023-07-16T09:08:58;3.50;;;2.80;;
1569;SDS011;778;50.120;8.698;2023-07-16T09:11:28;7.00;;;2.90;;
1569;SDS011;778;50.120;8.698;2023-07-16T09:13:56;3.87;;;3.23;;
1569;SDS011;778;50.120;8.698;2023-07-16T09:16:25;5.60;;;3.10;;
1569;SDS011;778;50.120;8.698;2023-07-16T09:18:53;3.80;;;3.07;;
1569;SDS011;778;50.120;8.698;2023-07-16T09:21:22;8.90;;;3.27;;
1569;SDS011;778;50.120;8.698;2023-07-16T09:23:51;5.50;;;2.80;;
1569;SDS011;778;50.120;8.698;2023-07-16T09:26:20;6.10;;;3.27;;
1569;SDS011;778;50.120;8.698;2023-07-16T09:28:50;3.90;;;3.17;;
1569;SDS011;778;50.120;8.698;2023-07-16T09:31:18;5.20;;;2.80;;
1569;SDS011;778;50.120;8.698;2023-07-16T09:33:47;5.17;;;2.90;;
1569;SDS011;778;50.120;8.698;2023-07-16T09:36:22;4.20;;;2.20;;
1569;SDS011;778;50.120;8.698;2023-07-16T09:38:52;4.63;;;2.87;;
1569;SDS011;778;50.120;8.698;2023-07-16T09:41:21;5.17;;;3.10;;
1569;SDS011;778;50.120;8.698;2023-07-16T09:43:52;7.30;;;3.37;;
1569;SDS011;778;50.120;8.698;2023-07-16T09:46:21;5.37;;;3.53;;
1569;SDS011;778;50.120;8.698;2023-07-16T09:48:49;5.67;;;2.80;;
1569;SDS011;778;50.120;8.698;2023-07-16T09:51:18;4.03;;;2.70;;
1569;SDS011;778;50.120;8.698;2023-07-16T09:53:47;4.47;;;3.10;;
1569;SDS011;778;50.120;8.698;2023-07-16T09:56:18;5.53;;;3.50;;
1569;SDS011;778;50.120;8.698;2023-07-16T09:58:48;8.03;;;3.50;;
1569;SDS011;778;50.120;8.698;2023-07-16T10:01:21;6.60;;;2.70;;
1569;SDS011;778;50.120;8.698;2023-07-16T10:03:50;5.30;;;3.40;;
1569;SDS011;778;50.120;8.698;2023-07-16T10:06:19;4.07;;;3.07;;
1569;SDS011;778;50.120;8.698;2023-07-16T10:08:48;5.30;;;3.20;;
1569;SDS011;778;50.120;8.698;2023-07-16T10:11:18;7.47;;;2.93;;
1569;SDS011;778;50.120;8.698;2023-07-16T10:13:49;6.10;;;2.80;;
1569;SDS011;778;50.120;8.698;2023-07-16T10:16:22;5.47;;;3.37;;
1569;SDS011;778;50.120;8.698;2023-07-16T10:18:54;6.70;;;3.30;;
1569;SDS011;778;50.120;8.698;2023-07-16T10:21:24;4.27;;;3.23;;
1569;SDS011;778;50.120;8.698;2023-07-16T10:23:56;5.20;;;3.20;;
1569;SDS011;778;50.120;8.698;2023-07-16T10:26:26;4.40;;;3.63;;
1569;SDS011;778;50.120;8.698;2023-07-16T10:28:55;7.20;;;3.73;;
1569;SDS011;778;50.120;8.698;2023-07-16T10:31:25;6.33;;;3.60;;
1569;SDS011;778;50.120;8.698;2023-07-16T10:34:00;4.37;;;3.97;;
1569;SDS011;778;50.120;8.698;2023-07-16T10:36:36;4.10;;;3.33;;
1569;SDS011;778;50.120;8.698;2023-07-16T10:39:05;4.47;;;3.00;;
1569;SDS011;778;50.120;8.698;2023-07-16T10:41:34;5.53;;;2.73;;
1569;SDS011;778;50.120;8.698;2023-07-16T10:44:03;5.37;;;3.13;;
1569;SDS011;778;50.120;8.698;2023-07-16T10:46:33;6.57;;;2.90;;
1569;SDS011;778;50.120;8.698;2023-07-16T10:49:01;8.63;;;3.80;;
1569;SDS011;778;50.120;8.698;2023-07-16T10:51:30;10.87;;;3.80;;
1569;SDS011;778;50.120;8.698;2023-07-16T10:53:59;6.20;;;3.50;;
1569;SDS011;778;50.120;8.698;2023-07-16T10:56:28;5.60;;;4.00;;
1569;SDS011;778;50.120;8.698;2023-07-16T10:58:57;4.60;;;3.70;;
1569;SDS011;778;50.120;8.698;2023-07-16T11:01:25;4.60;;;3.30;;
1569;SDS011;778;50.120;8.698;2023-07-16T11:04:01;5.70;;;3.60;;
1569;SDS011;778;50.120;8.698;2023-07-16T11:06:29;6.60;;;3.47;;
1569;SDS011;778;50.120;8.698;2023-07-16T11:09:05;4.23;;;3.30;;
1569;SDS011;778;50.120;8.698;2023-07-16T11:11:35;4.47;;;2.80;;
1569;SDS011;778;50.120;8.698;2023-07-16T11:14:04;5.57;;;3.37;;
1569;SDS011;778;50.120;8.698;2023-07-16T11:16:33;6.20;;;3.17;;
1569;SDS011;778;50.120;8.698;2023-07-16T11:19:05;4.33;;;2.90;;
1569;SDS011;778;50.120;8.698;2023-07-16T11:21:34;3.33;;;2.77;;
1569;SDS011;778;50.120;8.698;2023-07-16T11:24:07;9.40;;;3.30;;
1569;SDS011;778;50.120;8.698;2023-07-16T11:26:37;5.73;;;3.10;;
1569;SDS011;778;50.120;8.698;2023-07-16T11:29:12;5.77;;;3.50;;
1569;SDS011;778;50.120;8.698;2023-07-16T11:31:41;3.83;;;3.07;;
1569;SDS011;778;50.120;8.698;2023-07-16T11:34:13;5.70;;;2.60;;
1569;SDS011;778;50.120;8.698;2023-07-16T11:36:42;4.20;;;3.00;;
1569;SDS011;778;50.120;8.698;2023-07-16T11:39:10;8.10;;;4.03;;
1569;SDS011;778;50.120;8.698;2023-07-16T11:41:39;3.70;;;2.93;;
1569;SDS011;778;50.120;8.698;2023-07-16T11:44:07;5.80;;;3.03;;
1569;SDS011;778;50.120;8.698;2023-07-16T11:46:36;6.00;;;3.33;;
1569;SDS011;778;50.120;8.698;2023-07-16T11:49:04;7.30;;;2.90;;
1569;SDS011;778;50.120;8.698;2023-07-16T11:51:34;5.87;;;2.73;;
1569;SDS011;778;50.120;8.698;2023-07-16T11:54:03;3.83;;;3.50;;
1569;SDS011;778;50.120;8.698;2023-07-16T11:56:31;4.70;;;3.37;;
1569;SDS011;778;50.120;8.698;2023-07-16T11:58:59;5.20;;;3.20;;
1569;SDS011;778;50.120;8.698;2023-07-16T12:01:28;4.37;;;3.00;;
1569;SDS011;778;50.120;8.698;2023-07-16T12:03:56;4.73;;;3.63;;
1569;SDS011;778;50.120;8.698;2023-07-16T12:06:25;5.17;;;3.37;;
1569;SDS011;778;50.120;8.698;2023-07-16T12:08:55;5.37;;;3.13;;
1569;SDS011;778;50.120;8.698;2023-07-16T12:11:23;5.53;;;2.93;;
1569;SDS011;778;50.120;8.698;2023-07-16T12:13:52;5.50;;;2.80;;
1569;SDS011;778;50.120;8.698;2023-07-16T12:16:20;5.60;;;3.00;;
1569;SDS011;778;50.120;8.698;2023-07-16T12:18:49;5.17;;;2.97;;
1569;SDS011;778;50.120;8.698;2023-07-16T12:21:17;5.53;;;2.40;;
1569;SDS011;778;50.120;8.698;2023-07-16T12:23:45;4.20;;;2.93;;
1569;SDS011;778;50.120;8.698;2023-07-16T12:26:15;6.70;;;3.10;;
1569;SDS011;778;50.120;8.698;2023-07-16T12:28:44;5.10;;;3.67;;
1569;SDS011;778;50.120;8.698;2023-07-16T12:31:13;4.97;;;3.30;;
1569;SDS011;778;50.120;8.698;2023-07-16T12:33:43;4.30;;;3.90;;
1569;SDS011;778;50.120;8.698;2023-07-16T12:36:11;4.17;;;3.50;;
1569;SDS011;778;50.120;8.698;2023-07-16T12:38:41;5.60;;;3.27;;
1569;SDS011;778;50.120;8.698;2023-07-16T12:41:09;4.07;;;3.13;;
1569;SDS011;778;50.120;8.698;2023-07-16T12:43:39;5.13;;;3.70;;
1569;SDS011;778;50.120;8.698;2023-07-16T12:46:08;3.80;;;3.13;;
1569;SDS011;778;50.120;8.698;2023-07-16T12:48:37;5.70;;;3.67;;
1569;SDS011;778;50.120;8.698;2023-07-16T12:51:08;10.20;;;4.10;;
1569;SDS011;778;50.120;8.698;2023-07-16T12:53:37;6.07;;;3.50;;
1569;SDS011;778;50.120;8.698;2023-07-16T12:56:06;3.40;;;3.10;;
1569;SDS011;778;50.120;8.698;2023-07-16T12:58:34;4.40;;;4.07;;
1569;SDS011;778;50.120;8.698;2023-07-16T13:01:04;5.10;;;3.73;;
1569;SDS011;778;50.120;8.698;2023-07-16T13:03:32;5.53;;;4.27;;
1569;SDS011;778;50.120;8.698;2023-07-16T13:06:01;5.47;;;3.70;;
1569;SDS011;778;50.120;8.698;2023-07-16T13:08:30;4.57;;;3.20;;
1569;SDS011;778;50.120;8.698;2023-07-16T13:10:59;4.77;;;4.13;;
1569;SDS011;778;50.120;8.698;2023-07-16T13:13:27;7.00;;;4.43;;
1569;SDS011;778;50.120;8.698;2023-07-16T13:15:55;5.87;;;4.50;;
1569;SDS011;778;50.120;8.698;2023-07-16T13:18:25;6.47;;;4.50;;
1569;SDS011;778;50.120;8.698;2023-07-16T13:20:54;4.83;;;4.40;;
1569;SDS011;778;50.120;8.698;2023-07-16T13:23:22;5.10;;;4.20;;
1569;SDS011;778;50.120;8.698;2023-07-16T13:25:50;5.30;;;4.80;;
1569;SDS011;778;50.120;8.698;2023-07-16T13:28:20;7.30;;;4.93;;
1569;SDS011;778;50.120;8.698;2023-07-16T13:30:49;8.27;;;5.57;;
1569;SDS011;778;50.120;8.698;2023-07-16T13:33:18;6.70;;;4.90;;
1569;SDS011;778;50.120;8.698;2023-07-16T13:35:48;5.83;;;4.40;;
1569;SDS011;778;50.120;8.698;2023-07-16T13:38:16;6.50;;;4.37;;
1569;SDS011;778;50.120;8.698;2023-07-16T13:40:44;7.00;;;4.60;;
1569;SDS011;778;50.120;8.698;2023-07-16T13:43:13;4.97;;;4.57;;
1569;SDS011;778;50.120;8.698;2023-07-16T13:45:41;5.20;;;4.70;;
1569;SDS011;778;50.120;8.698;2023-07-16T13:48:10;8.50;;;5.80;;
1569;SDS011;778;50.120;8.698;2023-07-16T13:50:38;5.93;;;5.33;;
1569;SDS011;778;50.120;8.698;2023-07-16T13:53:08;7.73;;;5.33;;
1569;SDS011;778;50.120;8.698;2023-07-16T13:55:36;6.80;;;5.60;;
1569;SDS011;778;50.120;8.698;2023-07-16T13:58:05;5.77;;;5.17;;
1569;SDS011;778;50.120;8.698;2023-07-16T14:00:33;9.40;;;6.00;;
1569;SDS011;778;50.120;8.698;2023-07-16T14:03:02;6.20;;;5.57;;
1569;SDS011;778;50.120;8.698;2023-07-16T14:05:30;6.60;;;5.43;;
1569;SDS011;778;50.120;8.698;2023-07-16T14:08:01;6.50;;;4.53;;
1569;SDS011;778;50.120;8.698;2023-07-16T14:10:31;5.47;;;4.90;;
1569;SDS011;778;50.120;8.698;2023-07-16T14:12:59;7.30;;;5.20;;
1569;SDS011;778;50.120;8.698;2023-07-16T14:15:28;5.43;;;4.93;;
1569;SDS011;778;50.120;8.698;2023-07-16T14:17:56;5.50;;;4.40;;
1569;SDS011;778;50.120;8.698;2023-07-16T14:20:24;6.63;;;4.50;;
1569;SDS011;778;50.120;8.698;2023-07-16T14:22:53;7.17;;;4.23;;
1569;SDS011;778;50.120;8.698;2023-07-16T14:25:21;7.37;;;5.60;;
1569;SDS011;778;50.120;8.698;2023-07-16T14:27:51;6.03;;;5.30;;
1569;SDS011;778;50.120;8.698;2023-07-16T14:30:19;8.80;;;5.30;;
1569;SDS011;778;50.120;8.698;2023-07-16T14:32:48;6.70;;;4.87;;
1569;SDS011;778;50.120;8.698;2023-07-16T14:35:16;6.73;;;4.87;;
1569;SDS011;778;50.120;8.698;2023-07-16T14:38:01;6.70;;;6.00;;
1569;SDS011;778;50.120;8.698;2023-07-16T14:40:29;5.43;;;4.80;;
1569;SDS011;778;50.120;8.698;2023-07-16T14:42:59;7.30;;;5.03;;
1569;SDS011;778;50.120;8.698;2023-07-16T14:45:28;5.97;;;5.23;;
1569;SDS011;778;50.120;8.698;2023-07-16T14:47:56;6.60;;;5.33;;
1569;SDS011;778;50.120;8.698;2023-07-16T14:50:25;6.30;;;5.63;;
1569;SDS011;778;50.120;8.698;2023-07-16T14:52:53;8.67;;;5.67;;
1569;SDS011;778;50.120;8.698;2023-07-16T14:55:22;11.13;;;6.07;;
1569;SDS011;778;50.120;8.698;2023-07-16T14:57:50;8.53;;;6.07;;
1569;SDS011;778;50.120;8.698;2023-07-16T15:00:20;10.60;;;6.33;;
1569;SDS011;778;50.120;8.698;2023-07-16T15:02:49;6.03;;;5.47;;
1569;SDS011;778;50.120;8.698;2023-07-16T15:05:17;10.70;;;6.10;;
1569;SDS011;778;50.120;8.698;2023-07-16T15:07:46;6.80;;;5.10;;
1569;SDS011;778;50.120;8.698;2023-07-16T15:10:15;5.83;;;5.30;;
1569;SDS011;778;50.120;8.698;2023-07-16T15:12:43;5.90;;;5.27;;
1569;SDS011;778;50.120;8.698;2023-07-16T15:15:12;7.87;;;6.30;;
1569;SDS011;778;50.120;8.698;2023-07-16T15:17:42;15.60;;;12.60;;
1569;SDS011;778;50.120;8.698;2023-07-16T15:20:11;8.03;;;7.07;;
1569;SDS011;778;50.120;8.698;2023-07-16T15:22:40;8.37;;;6.10;;
1569;SDS011;778;50.120;8.698;2023-07-16T15:25:08;6.33;;;4.93;;
1569;SDS011;778;50.120;8.698;2023-07-16T15:27:38;7.13;;;5.97;;
1569;SDS011;778;50.120;8.698;2023-07-16T15:30:07;6.53;;;5.10;;
1569;SDS011;778;50.120;8.698;2023-07-16T15:32:36;7.00;;;6.30;;
1569;SDS011;778;50.120;8.698;2023-07-16T15:35:06;6.33;;;5.70;;
1569;SDS011;778;50.120;8.698;2023-07-16T15:37:35;6.63;;;5.83;;
1569;SDS011;778;50.120;8.698;2023-07-16T15:40:11;6.23;;;5.27;;
1569;SDS011;778;50.120;8.698;2023-07-16T15:42:42;5.90;;;5.40;;
1569;SDS011;778;50.120;8.698;2023-07-16T15:45:11;7.97;;;5.47;;